sensor_id;sensor_type;location;lat;lon;timestamp;pressure;altitude;pressure_sealevel;temperature;humidity
32456;BME280;18912;43.270;27.942;2022-07-29T00:01:05;98267.16;;;22.14;65.52
32456;BME280;18912;43.270;27.942;2022-07-29T00:03:31;98264.66;;;22.17;65.05
32456;BME280;18912;43.270;27.942;2022-07-29T00:05:57;98258.63;;;22.15;64.77
32456;BME280;18912;43.270;27.942;2022-07-29T00:08:22;98259.97;;;22.23;64.45
32456;BME280;18912;43.270;27.942;2022-07-29T00:10:48;98248.47;;;22.11;64.47
32456;BME280;18912;43.270;27.942;2022-07-29T00:13:13;98254.25;;;21.99;64.51
32456;BME280;18912;43.270;27.942;2022-07-29T00:15:39;98258.63;;;22.00;64.31
32456;BME280;18912;43.270;27.942;2022-07-29T00:18:04;98266.34;;;21.88;64.68
32456;BME280;18912;43.270;27.942;2022-07-29T00:20:30;98260.84;;;21.93;64.17
32456;BME280;18912;43.270;27.942;2022-07-29T00:22:56;98266.66;;;21.92;64.51
32456;BME280;18912;43.270;27.942;2022-07-29T00:25:22;98266.38;;;21.93;64.19
32456;BME280;18912;43.270;27.942;2022-07-29T00:27:47;98262.50;;;21.94;63.77
32456;BME280;18912;43.270;27.942;2022-07-29T00:30:13;98263.59;;;21.83;63.93
32456;BME280;18912;43.270;27.942;2022-07-29T00:32:39;98270.75;;;21.69;64.10
32456;BME280;18912;43.270;27.942;2022-07-29T00:35:05;98265.25;;;21.69;64.22
32456;BME280;18912;43.270;27.942;2022-07-29T00:37:49;98260.84;;;21.63;64.62
32456;BME280;18912;43.270;27.942;2022-07-29T00:40:15;98263.31;;;21.65;64.31
32456;BME280;18912;43.270;27.942;2022-07-29T00:42:44;98263.00;;;21.56;64.69
32456;BME280;18912;43.270;27.942;2022-07-29T00:45:11;98266.34;;;21.63;64.82
32456;BME280;18912;43.270;27.942;2022-07-29T00:47:36;98264.41;;;21.59;65.04
32456;BME280;18912;43.270;27.942;2022-07-29T00:50:04;98258.88;;;21.49;65.37
32456;BME280;18912;43.270;27.942;2022-07-29T00:52:29;98262.47;;;21.54;65.07
32456;BME280;18912;43.270;27.942;2022-07-29T00:54:56;98256.41;;;21.47;65.13
32456;BME280;18912;43.270;27.942;2022-07-29T00:57:21;98248.72;;;21.49;65.13
32456;BME280;18912;43.270;27.942;2022-07-29T00:59:47;98245.97;;;21.44;64.91
32456;BME280;18912;43.270;27.942;2022-07-29T01:02:12;98250.38;;;21.40;65.17
32456;BME280;18912;43.270;27.942;2022-07-29T01:04:38;98242.66;;;21.32;65.65
32456;BME280;18912;43.270;27.942;2022-07-29T01:07:04;98247.06;;;21.33;65.93
32456;BME280;18912;43.270;27.942;2022-07-29T01:09:34;98244.28;;;21.23;66.33
32456;BME280;18912;43.270;27.942;2022-07-29T01:12:01;98239.34;;;21.30;66.77
32456;BME280;18912;43.270;27.942;2022-07-29T01:14:28;98251.16;;;21.25;67.45
32456;BME280;18912;43.270;27.942;2022-07-29T01:17:13;98245.91;;;21.24;67.40
32456;BME280;18912;43.270;27.942;2022-07-29T01:31:06;98242.13;;;21.35;67.28
32456;BME280;18912;43.270;27.942;2022-07-29T01:33:38;98234.38;;;21.37;67.04
32456;BME280;18912;43.270;27.942;2022-07-29T01:36:55;98239.91;;;21.47;66.40
32456;BME280;18912;43.270;27.942;2022-07-29T01:39:27;98241.00;;;21.41;66.65
32456;BME280;18912;43.270;27.942;2022-07-29T01:42:05;98233.84;;;21.40;66.52
32456;BME280;18912;43.270;27.942;2022-07-29T01:44:41;98247.06;;;21.48;66.65
32456;BME280;18912;43.270;27.942;2022-07-29T01:47:14;98246.50;;;21.36;66.22
32456;BME280;18912;43.270;27.942;2022-07-29T01:49:46;98242.66;;;21.42;66.05
32456;BME280;18912;43.270;27.942;2022-07-29T01:52:35;98233.59;;;21.42;65.82
32456;BME280;18912;43.270;27.942;2022-07-29T01:55:09;98236.59;;;21.30;65.68
32456;BME280;18912;43.270;27.942;2022-07-29T01:57:39;98235.47;;;21.21;65.77
32456;BME280;18912;43.270;27.942;2022-07-29T02:00:06;98230.00;;;21.31;65.04
32456;BME280;18912;43.270;27.942;2022-07-29T02:02:32;98231.09;;;21.40;64.36
32456;BME280;18912;43.270;27.942;2022-07-29T02:05:00;98236.88;;;21.38;64.43
32456;BME280;18912;43.270;27.942;2022-07-29T02:07:29;98230.78;;;21.16;64.72
32456;BME280;18912;43.270;27.942;2022-07-29T02:09:58;98228.31;;;21.15;65.00
32456;BME280;18912;43.270;27.942;2022-07-29T02:12:26;98231.63;;;21.17;65.00
32456;BME280;18912;43.270;27.942;2022-07-29T02:14:56;98220.91;;;21.15;64.65
32456;BME280;18912;43.270;27.942;2022-07-29T02:17:32;98232.72;;;21.16;64.57
32456;BME280;18912;43.270;27.942;2022-07-29T02:20:00;98233.22;;;21.03;64.73
32456;BME280;18912;43.270;27.942;2022-07-29T02:22:29;98232.72;;;21.06;64.60
32456;BME280;18912;43.270;27.942;2022-07-29T02:24:55;98226.94;;;21.07;64.36
32456;BME280;18912;43.270;27.942;2022-07-29T02:27:22;98229.13;;;21.00;64.80
32456;BME280;18912;43.270;27.942;2022-07-29T02:29:50;98232.13;;;20.99;64.78
32456;BME280;18912;43.270;27.942;2022-07-29T02:32:17;98221.09;;;20.89;65.61
32456;BME280;18912;43.270;27.942;2022-07-29T02:34:44;98226.03;;;20.92;65.80
32456;BME280;18912;43.270;27.942;2022-07-29T02:37:12;98225.78;;;20.93;65.86
32456;BME280;18912;43.270;27.942;2022-07-29T02:39:40;98223.56;;;20.90;65.74
32456;BME280;18912;43.270;27.942;2022-07-29T02:42:08;98229.06;;;20.90;65.84
32456;BME280;18912;43.270;27.942;2022-07-29T02:44:35;98227.41;;;20.89;66.07
32456;BME280;18912;43.270;27.942;2022-07-29T02:50:02;98241.44;;;20.93;66.59
32456;BME280;18912;43.270;27.942;2022-07-29T02:52:45;98245.81;;;20.94;66.69
32456;BME280;18912;43.270;27.942;2022-07-29T02:55:37;98235.97;;;21.03;67.06
32456;BME280;18912;43.270;27.942;2022-07-29T03:00:37;98232.72;;;21.16;67.11
32456;BME280;18912;43.270;27.942;2022-07-29T03:03:11;98242.09;;;21.25;67.28
32456;BME280;18912;43.270;27.942;2022-07-29T03:05:37;98237.16;;;21.32;67.25
32456;BME280;18912;43.270;27.942;2022-07-29T03:08:04;98240.44;;;21.39;67.09
32456;BME280;18912;43.270;27.942;2022-07-29T03:10:31;98240.44;;;21.34;67.25
32456;BME280;18912;43.270;27.942;2022-07-29T03:12:57;98243.19;;;21.39;67.33
32456;BME280;18912;43.270;27.942;2022-07-29T03:15:24;98244.59;;;21.36;67.28
32456;BME280;18912;43.270;27.942;2022-07-29T03:17:51;98247.31;;;21.42;66.75
32456;BME280;18912;43.270;27.942;2022-07-29T03:20:17;98250.91;;;21.42;66.35
32456;BME280;18912;43.270;27.942;2022-07-29T03:22:44;98257.78;;;21.50;65.83
32456;BME280;18912;43.270;27.942;2022-07-29T03:25:13;98253.69;;;21.52;66.14
32456;BME280;18912;43.270;27.942;2022-07-29T03:27:39;98259.16;;;21.62;66.34
32456;BME280;18912;43.270;27.942;2022-07-29T03:30:06;98256.16;;;21.69;66.49
32456;BME280;18912;43.270;27.942;2022-07-29T03:32:32;98261.38;;;21.75;66.65
32456;BME280;18912;43.270;27.942;2022-07-29T03:34:58;98247.06;;;21.73;66.80
32456;BME280;18912;43.270;27.942;2022-07-29T03:37:23;98264.44;;;21.89;67.17
32456;BME280;18912;43.270;27.942;2022-07-29T03:39:50;98258.34;;;22.02;67.50
32456;BME280;18912;43.270;27.942;2022-07-29T03:42:19;98261.91;;;22.17;68.04
32456;BME280;18912;43.270;27.942;2022-07-29T03:44:47;98272.63;;;22.29;68.39
32456;BME280;18912;43.270;27.942;2022-07-29T03:47:14;98271.22;;;22.42;70.08
32456;BME280;18912;43.270;27.942;2022-07-29T03:49:42;98269.28;;;22.62;71.87
32456;BME280;18912;43.270;27.942;2022-07-29T03:52:09;98275.56;;;22.73;72.70
32456;BME280;18912;43.270;27.942;2022-07-29T03:54:36;98269.19;;;22.82;72.82
32456;BME280;18912;43.270;27.942;2022-07-29T03:57:01;98275.19;;;22.99;73.20
32456;BME280;18912;43.270;27.942;2022-07-29T03:59:30;98281.47;;;23.10;73.63
32456;BME280;18912;43.270;27.942;2022-07-29T04:01:56;98274.19;;;23.29;72.74
32456;BME280;18912;43.270;27.942;2022-07-29T04:04:23;98274.06;;;23.54;71.87
32456;BME280;18912;43.270;27.942;2022-07-29T04:06:48;98284.97;;;23.74;71.88
32456;BME280;18912;43.270;27.942;2022-07-29T04:09:14;98279.94;;;23.81;73.34
32456;BME280;18912;43.270;27.942;2022-07-29T04:11:41;98272.59;;;24.00;73.43
32456;BME280;18912;43.270;27.942;2022-07-29T04:14:06;98276.25;;;24.25;73.34
32456;BME280;18912;43.270;27.942;2022-07-29T04:16:32;98273.81;;;24.47;73.43
32456;BME280;18912;43.270;27.942;2022-07-29T04:18:58;98269.69;;;24.68;73.30
32456;BME280;18912;43.270;27.942;2022-07-29T04:21:24;98268.44;;;24.84;73.02
32456;BME280;18912;43.270;27.942;2022-07-29T04:23:49;98266.91;;;24.96;73.05
32456;BME280;18912;43.270;27.942;2022-07-29T04:26:19;98272.53;;;25.10;73.14
32456;BME280;18912;43.270;27.942;2022-07-29T04:28:45;98272.31;;;25.25;73.05
32456;BME280;18912;43.270;27.942;2022-07-29T04:31:12;98262.72;;;25.41;72.71
32456;BME280;18912;43.270;27.942;2022-07-29T04:33:38;98267.50;;;25.54;72.40
32456;BME280;18912;43.270;27.942;2022-07-29T04:36:04;98269.00;;;25.65;72.03
32456;BME280;18912;43.270;27.942;2022-07-29T04:38:30;98271.94;;;25.87;71.78
32456;BME280;18912;43.270;27.942;2022-07-29T04:40:55;98270.00;;;26.07;71.75
32456;BME280;18912;43.270;27.942;2022-07-29T04:43:20;98267.59;;;26.32;71.00
32456;BME280;18912;43.270;27.942;2022-07-29T04:45:46;98269.06;;;26.57;70.31
32456;BME280;18912;43.270;27.942;2022-07-29T04:48:11;98268.88;;;26.67;69.82
32456;BME280;18912;43.270;27.942;2022-07-29T04:50:40;98270.88;;;26.94;69.24
32456;BME280;18912;43.270;27.942;2022-07-29T04:53:06;98270.44;;;27.14;68.51
32456;BME280;18912;43.270;27.942;2022-07-29T04:55:33;98273.38;;;27.31;68.37
32456;BME280;18912;43.270;27.942;2022-07-29T04:57:58;98274.50;;;27.30;67.64
32456;BME280;18912;43.270;27.942;2022-07-29T05:00:24;98271.91;;;27.47;66.95
32456;BME280;18912;43.270;27.942;2022-07-29T05:02:49;98269.63;;;27.62;66.40
32456;BME280;18912;43.270;27.942;2022-07-29T05:05:15;98273.34;;;27.58;66.18
32456;BME280;18912;43.270;27.942;2022-07-29T05:07:40;98273.03;;;27.82;65.58
32456;BME280;18912;43.270;27.942;2022-07-29T05:10:06;98271.19;;;28.13;65.05
32456;BME280;18912;43.270;27.942;2022-07-29T05:12:32;98257.72;;;28.28;60.11
32456;BME280;18912;43.270;27.942;2022-07-29T05:14:58;98264.47;;;28.36;53.01
32456;BME280;18912;43.270;27.942;2022-07-29T05:17:23;98264.97;;;28.69;52.00
32456;BME280;18912;43.270;27.942;2022-07-29T05:19:49;98266.41;;;29.05;49.58
32456;BME280;18912;43.270;27.942;2022-07-29T05:22:17;98268.66;;;29.51;47.90
32456;BME280;18912;43.270;27.942;2022-07-29T05:24:43;98270.34;;;29.78;47.50
32456;BME280;18912;43.270;27.942;2022-07-29T05:27:09;98267.72;;;30.07;45.65
32456;BME280;18912;43.270;27.942;2022-07-29T05:29:34;98270.31;;;30.12;42.45
32456;BME280;18912;43.270;27.942;2022-07-29T05:32:00;98271.16;;;30.29;42.69
32456;BME280;18912;43.270;27.942;2022-07-29T05:34:26;98264.50;;;30.60;42.15
32456;BME280;18912;43.270;27.942;2022-07-29T05:36:52;98265.41;;;30.72;40.87
32456;BME280;18912;43.270;27.942;2022-07-29T05:39:17;98265.84;;;31.00;39.75
32456;BME280;18912;43.270;27.942;2022-07-29T05:41:43;98264.72;;;31.21;39.25
32456;BME280;18912;43.270;27.942;2022-07-29T05:44:08;98267.50;;;31.51;39.67
32456;BME280;18912;43.270;27.942;2022-07-29T05:46:34;98266.56;;;31.67;38.98
32456;BME280;18912;43.270;27.942;2022-07-29T05:48:59;98268.06;;;31.85;38.32
32456;BME280;18912;43.270;27.942;2022-07-29T05:51:25;98273.31;;;32.07;37.77
32456;BME280;18912;43.270;27.942;2022-07-29T05:53:51;98273.16;;;32.25;36.73
32456;BME280;18912;43.270;27.942;2022-07-29T05:56:17;98273.47;;;32.44;36.77
32456;BME280;18912;43.270;27.942;2022-07-29T05:58:42;98282.06;;;32.39;36.40
32456;BME280;18912;43.270;27.942;2022-07-29T06:01:08;98272.72;;;32.67;35.78
32456;BME280;18912;43.270;27.942;2022-07-29T06:03:33;98274.59;;;32.87;36.10
32456;BME280;18912;43.270;27.942;2022-07-29T06:05:59;98274.38;;;32.80;35.82
32456;BME280;18912;43.270;27.942;2022-07-29T06:08:25;98276.16;;;33.09;35.26
32456;BME280;18912;43.270;27.942;2022-07-29T06:10:50;98280.34;;;33.27;35.22
32456;BME280;18912;43.270;27.942;2022-07-29T06:13:16;98290.50;;;33.32;34.44
32456;BME280;18912;43.270;27.942;2022-07-29T06:15:42;98276.75;;;33.51;34.45
32456;BME280;18912;43.270;27.942;2022-07-29T06:18:08;98287.41;;;33.85;33.72
32456;BME280;18912;43.270;27.942;2022-07-29T06:20:35;98282.50;;;34.22;34.01
32456;BME280;18912;43.270;27.942;2022-07-29T06:23:00;98281.72;;;34.21;33.07
32456;BME280;18912;43.270;27.942;2022-07-29T06:25:27;98285.53;;;34.44;32.93
32456;BME280;18912;43.270;27.942;2022-07-29T06:27:56;98284.72;;;34.71;32.30
32456;BME280;18912;43.270;27.942;2022-07-29T06:30:22;98284.72;;;34.71;31.61
32456;BME280;18912;43.270;27.942;2022-07-29T06:32:47;98281.94;;;34.87;32.16
32456;BME280;18912;43.270;27.942;2022-07-29T06:35:14;98283.22;;;35.05;31.08
32456;BME280;18912;43.270;27.942;2022-07-29T06:37:40;98284.03;;;35.06;31.10
32456;BME280;18912;43.270;27.942;2022-07-29T06:40:06;98286.38;;;35.35;29.85
32456;BME280;18912;43.270;27.942;2022-07-29T06:42:50;98290.63;;;35.60;30.39
32456;BME280;18912;43.270;27.942;2022-07-29T06:45:15;98288.06;;;35.55;30.25
32456;BME280;18912;43.270;27.942;2022-07-29T06:47:41;98290.06;;;35.89;30.52
32456;BME280;18912;43.270;27.942;2022-07-29T06:50:07;98288.88;;;35.90;29.60
32456;BME280;18912;43.270;27.942;2022-07-29T06:52:36;98298.53;;;36.08;29.40
32456;BME280;18912;43.270;27.942;2022-07-29T06:55:02;98293.88;;;36.16;28.83
32456;BME280;18912;43.270;27.942;2022-07-29T06:57:27;98288.69;;;36.18;29.40
32456;BME280;18912;43.270;27.942;2022-07-29T06:59:53;98283.59;;;36.04;29.21
32456;BME280;18912;43.270;27.942;2022-07-29T07:02:18;98289.06;;;36.16;28.39
32456;BME280;18912;43.270;27.942;2022-07-29T07:04:44;98285.28;;;36.28;28.44
32456;BME280;18912;43.270;27.942;2022-07-29T07:07:09;98288.91;;;36.47;28.88
32456;BME280;18912;43.270;27.942;2022-07-29T07:09:34;98288.66;;;36.75;28.02
32456;BME280;18912;43.270;27.942;2022-07-29T07:12:00;98282.97;;;36.72;28.72
32456;BME280;18912;43.270;27.942;2022-07-29T07:14:25;98282.81;;;36.65;28.30
32456;BME280;18912;43.270;27.942;2022-07-29T07:16:52;98290.88;;;36.85;27.89
32456;BME280;18912;43.270;27.942;2022-07-29T07:19:17;98297.44;;;37.15;27.09
32456;BME280;18912;43.270;27.942;2022-07-29T07:21:44;98292.13;;;37.10;27.70
32456;BME280;18912;43.270;27.942;2022-07-29T07:24:09;98292.31;;;37.21;27.93
32456;BME280;18912;43.270;27.942;2022-07-29T07:26:35;98285.59;;;37.29;28.02
32456;BME280;18912;43.270;27.942;2022-07-29T07:29:00;98289.19;;;37.52;26.75
32456;BME280;18912;43.270;27.942;2022-07-29T07:31:26;98295.59;;;37.49;26.66
32456;BME280;18912;43.270;27.942;2022-07-29T07:33:52;98298.13;;;37.80;27.65
32456;BME280;18912;43.270;27.942;2022-07-29T07:36:18;98291.69;;;37.57;26.46
32456;BME280;18912;43.270;27.942;2022-07-29T07:38:44;98298.69;;;37.93;27.14
32456;BME280;18912;43.270;27.942;2022-07-29T07:41:09;98298.88;;;37.77;25.78
32456;BME280;18912;43.270;27.942;2022-07-29T07:43:35;98299.22;;;38.02;25.37
32456;BME280;18912;43.270;27.942;2022-07-29T07:46:00;98298.53;;;38.42;25.64
32456;BME280;18912;43.270;27.942;2022-07-29T07:48:26;98302.88;;;38.35;25.55
32456;BME280;18912;43.270;27.942;2022-07-29T07:50:52;98301.66;;;38.03;25.69
32456;BME280;18912;43.270;27.942;2022-07-29T07:53:17;98300.94;;;37.80;26.79
32456;BME280;18912;43.270;27.942;2022-07-29T07:55:43;98298.44;;;37.75;26.92
32456;BME280;18912;43.270;27.942;2022-07-29T07:58:09;98300.28;;;37.38;26.07
32456;BME280;18912;43.270;27.942;2022-07-29T08:00:35;98308.41;;;37.20;26.74
32456;BME280;18912;43.270;27.942;2022-07-29T08:03:01;98301.13;;;37.68;25.55
32456;BME280;18912;43.270;27.942;2022-07-29T08:05:27;98303.94;;;37.68;26.29
32456;BME280;18912;43.270;27.942;2022-07-29T08:07:53;98300.66;;;37.89;25.67
32456;BME280;18912;43.270;27.942;2022-07-29T08:10:19;98298.28;;;38.20;25.57
32456;BME280;18912;43.270;27.942;2022-07-29T08:13:07;98297.59;;;38.30;25.47
32456;BME280;18912;43.270;27.942;2022-07-29T08:15:34;98304.81;;;38.28;26.00
32456;BME280;18912;43.270;27.942;2022-07-29T08:18:00;98311.00;;;38.70;25.96
32456;BME280;18912;43.270;27.942;2022-07-29T08:20:25;98298.03;;;38.32;25.28
32456;BME280;18912;43.270;27.942;2022-07-29T08:22:51;98304.72;;;37.65;26.29
32456;BME280;18912;43.270;27.942;2022-07-29T08:25:18;98297.22;;;38.02;26.17
32456;BME280;18912;43.270;27.942;2022-07-29T08:27:46;98302.47;;;38.67;25.99
32456;BME280;18912;43.270;27.942;2022-07-29T08:30:12;98308.09;;;39.00;25.24
32456;BME280;18912;43.270;27.942;2022-07-29T08:32:38;98312.09;;;38.99;25.17
32456;BME280;18912;43.270;27.942;2022-07-29T08:35:04;98300.72;;;39.32;24.35
32456;BME280;18912;43.270;27.942;2022-07-29T08:37:30;98307.66;;;39.38;25.11
32456;BME280;18912;43.270;27.942;2022-07-29T08:39:55;98299.78;;;39.17;24.68
32456;BME280;18912;43.270;27.942;2022-07-29T08:42:21;98301.63;;;39.03;24.81
32456;BME280;18912;43.270;27.942;2022-07-29T08:44:47;98303.56;;;39.36;24.94
32456;BME280;18912;43.270;27.942;2022-07-29T08:47:15;98303.75;;;39.57;24.42
32456;BME280;18912;43.270;27.942;2022-07-29T08:49:41;98301.22;;;39.48;24.35
32456;BME280;18912;43.270;27.942;2022-07-29T08:52:06;98291.81;;;39.88;24.05
32456;BME280;18912;43.270;27.942;2022-07-29T08:54:32;98295.97;;;40.01;24.09
32456;BME280;18912;43.270;27.942;2022-07-29T08:56:58;98291.97;;;40.13;24.04
32456;BME280;18912;43.270;27.942;2022-07-29T08:59:25;98285.53;;;40.19;24.19
32456;BME280;18912;43.270;27.942;2022-07-29T09:01:53;98287.38;;;39.83;23.44
32456;BME280;18912;43.270;27.942;2022-07-29T09:04:19;98285.75;;;39.32;24.78
32456;BME280;18912;43.270;27.942;2022-07-29T09:06:47;98281.66;;;39.76;24.46
32456;BME280;18912;43.270;27.942;2022-07-29T09:09:14;98285.03;;;39.96;24.07
32456;BME280;18912;43.270;27.942;2022-07-29T09:11:41;98286.25;;;39.98;24.18
32456;BME280;18912;43.270;27.942;2022-07-29T09:14:07;98280.72;;;40.23;23.81
32456;BME280;18912;43.270;27.942;2022-07-29T09:19:25;98284.63;;;40.01;23.69
32456;BME280;18912;43.270;27.942;2022-07-29T09:21:51;98275.25;;;39.86;23.88
32456;BME280;18912;43.270;27.942;2022-07-29T09:24:23;98275.63;;;39.81;24.01
32456;BME280;18912;43.270;27.942;2022-07-29T09:26:48;98274.25;;;39.54;24.19
32456;BME280;18912;43.270;27.942;2022-07-29T09:29:18;98269.41;;;39.58;24.96
32456;BME280;18912;43.270;27.942;2022-07-29T09:31:48;98273.06;;;39.59;23.99
32456;BME280;18912;43.270;27.942;2022-07-29T09:34:16;98263.06;;;39.79;23.93
32456;BME280;18912;43.270;27.942;2022-07-29T09:36:53;98263.63;;;40.02;24.53
32456;BME280;18912;43.270;27.942;2022-07-29T09:39:39;98265.16;;;39.31;24.32
32456;BME280;18912;43.270;27.942;2022-07-29T09:42:13;98262.97;;;39.10;25.36
32456;BME280;18912;43.270;27.942;2022-07-29T09:44:52;98269.13;;;38.13;25.94
32456;BME280;18912;43.270;27.942;2022-07-29T09:47:18;98262.66;;;38.79;25.12
32456;BME280;18912;43.270;27.942;2022-07-29T09:49:57;98269.59;;;38.52;26.00
32456;BME280;18912;43.270;27.942;2022-07-29T09:52:27;98265.44;;;37.79;27.00
32456;BME280;18912;43.270;27.942;2022-07-29T09:55:05;98260.88;;;37.71;26.85
32456;BME280;18912;43.270;27.942;2022-07-29T09:57:31;98255.66;;;38.29;26.01
32456;BME280;18912;43.270;27.942;2022-07-29T10:02:22;98261.66;;;37.42;26.07
32456;BME280;18912;43.270;27.942;2022-07-29T10:04:48;98259.25;;;37.70;26.32
32456;BME280;18912;43.270;27.942;2022-07-29T10:07:14;98261.22;;;37.66;26.40
32456;BME280;18912;43.270;27.942;2022-07-29T10:09:55;98254.16;;;37.79;25.53
32456;BME280;18912;43.270;27.942;2022-07-29T10:12:22;98257.59;;;37.92;25.74
32456;BME280;18912;43.270;27.942;2022-07-29T10:14:48;98259.03;;;38.12;25.04
32456;BME280;18912;43.270;27.942;2022-07-29T10:17:15;98258.47;;;37.99;26.39
32456;BME280;18912;43.270;27.942;2022-07-29T10:19:41;98262.91;;;38.00;25.73
32456;BME280;18912;43.270;27.942;2022-07-29T10:22:09;98271.44;;;37.03;26.13
32456;BME280;18912;43.270;27.942;2022-07-29T10:24:36;98272.19;;;36.54;26.44
32456;BME280;18912;43.270;27.942;2022-07-29T10:27:07;98263.94;;;36.88;26.79
32456;BME280;18912;43.270;27.942;2022-07-29T10:29:33;98267.59;;;36.27;27.05
32456;BME280;18912;43.270;27.942;2022-07-29T10:43:54;98269.19;;;36.47;26.73
32456;BME280;18912;43.270;27.942;2022-07-29T10:46:20;98252.50;;;35.97;27.14
32456;BME280;18912;43.270;27.942;2022-07-29T10:49:13;98258.78;;;36.71;26.99
32456;BME280;18912;43.270;27.942;2022-07-29T10:52:00;98252.63;;;36.84;26.25
32456;BME280;18912;43.270;27.942;2022-07-29T10:54:45;98256.78;;;36.10;27.32
32456;BME280;18912;43.270;27.942;2022-07-29T10:57:13;98259.72;;;35.44;27.57
32456;BME280;18912;43.270;27.942;2022-07-29T10:59:40;98244.50;;;35.64;27.50
32456;BME280;18912;43.270;27.942;2022-07-29T11:07:23;98250.19;;;35.49;27.63
32456;BME280;18912;43.270;27.942;2022-07-29T11:15:16;98245.81;;;35.86;27.84
32456;BME280;18912;43.270;27.942;2022-07-29T11:20:39;98254.38;;;35.74;27.71
32456;BME280;18912;43.270;27.942;2022-07-29T11:23:29;98245.78;;;35.67;27.85
32456;BME280;18912;43.270;27.942;2022-07-29T11:26:17;98243.13;;;35.74;29.08
32456;BME280;18912;43.270;27.942;2022-07-29T11:28:52;98236.09;;;35.64;27.80
32456;BME280;18912;43.270;27.942;2022-07-29T11:34:25;98234.53;;;36.02;27.94
32456;BME280;18912;43.270;27.942;2022-07-29T11:40:08;98232.88;;;36.01;28.60
32456;BME280;18912;43.270;27.942;2022-07-29T11:47:32;98232.34;;;35.95;29.48
32456;BME280;18912;43.270;27.942;2022-07-29T11:50:00;98226.03;;;35.83;29.87
32456;BME280;18912;43.270;27.942;2022-07-29T11:55:01;98225.47;;;35.93;29.79
32456;BME280;18912;43.270;27.942;2022-07-29T11:57:28;98222.41;;;35.63;29.92
32456;BME280;18912;43.270;27.942;2022-07-29T11:59:55;98215.75;;;35.36;30.27
32456;BME280;18912;43.270;27.942;2022-07-29T12:02:21;98219.44;;;34.74;30.29
32456;BME280;18912;43.270;27.942;2022-07-29T12:04:54;98208.84;;;35.34;30.00
32456;BME280;18912;43.270;27.942;2022-07-29T12:07:31;98216.16;;;35.04;29.52
32456;BME280;18912;43.270;27.942;2022-07-29T12:09:57;98207.66;;;35.00;29.82
32456;BME280;18912;43.270;27.942;2022-07-29T12:12:23;98202.94;;;34.73;29.96
32456;BME280;18912;43.270;27.942;2022-07-29T12:14:49;98205.03;;;34.92;29.88
32456;BME280;18912;43.270;27.942;2022-07-29T12:17:44;98202.19;;;35.07;29.62
32456;BME280;18912;43.270;27.942;2022-07-29T12:20:10;98202.13;;;35.38;29.77
32456;BME280;18912;43.270;27.942;2022-07-29T12:22:39;98194.47;;;35.54;29.72
32456;BME280;18912;43.270;27.942;2022-07-29T12:25:14;98194.16;;;34.74;30.24
32456;BME280;18912;43.270;27.942;2022-07-29T12:27:41;98201.22;;;35.00;30.48
32456;BME280;18912;43.270;27.942;2022-07-29T12:30:11;98184.00;;;34.54;30.57
32456;BME280;18912;43.270;27.942;2022-07-29T12:32:38;98187.09;;;34.49;30.90
32456;BME280;18912;43.270;27.942;2022-07-29T12:35:15;98192.72;;;34.49;30.63
32456;BME280;18912;43.270;27.942;2022-07-29T12:37:43;98176.19;;;34.32;30.05
32456;BME280;18912;43.270;27.942;2022-07-29T12:40:12;98179.63;;;34.41;30.46
32456;BME280;18912;43.270;27.942;2022-07-29T12:42:38;98179.94;;;34.52;29.18
32456;BME280;18912;43.270;27.942;2022-07-29T12:45:04;98176.25;;;34.48;29.70
32456;BME280;18912;43.270;27.942;2022-07-29T12:47:30;98173.28;;;34.13;29.40
32456;BME280;18912;43.270;27.942;2022-07-29T12:52:35;98171.84;;;34.35;28.47
32456;BME280;18912;43.270;27.942;2022-07-29T12:55:01;98161.94;;;34.53;27.50
32456;BME280;18912;43.270;27.942;2022-07-29T12:57:29;98154.94;;;34.62;27.53
32456;BME280;18912;43.270;27.942;2022-07-29T13:00:06;98171.63;;;34.12;28.09
32456;BME280;18912;43.270;27.942;2022-07-29T13:02:37;98159.97;;;34.26;28.00
32456;BME280;18912;43.270;27.942;2022-07-29T13:05:05;98160.69;;;34.07;28.96
32456;BME280;18912;43.270;27.942;2022-07-29T13:07:33;98165.94;;;34.24;29.47
32456;BME280;18912;43.270;27.942;2022-07-29T13:10:20;98157.78;;;34.04;29.24
32456;BME280;18912;43.270;27.942;2022-07-29T13:13:03;98158.91;;;34.30;30.11
32456;BME280;18912;43.270;27.942;2022-07-29T13:15:28;98173.19;;;34.10;29.63
32456;BME280;18912;43.270;27.942;2022-07-29T13:17:55;98164.06;;;34.59;29.14
32456;BME280;18912;43.270;27.942;2022-07-29T13:20:24;98172.03;;;33.99;30.62
32456;BME280;18912;43.270;27.942;2022-07-29T13:22:50;98161.66;;;33.99;30.64
32456;BME280;18912;43.270;27.942;2022-07-29T13:25:27;98159.88;;;34.22;28.07
32456;BME280;18912;43.270;27.942;2022-07-29T13:27:53;98168.19;;;34.03;29.51
32456;BME280;18912;43.270;27.942;2022-07-29T13:30:20;98156.69;;;34.51;28.29
32456;BME280;18912;43.270;27.942;2022-07-29T13:32:46;98164.88;;;34.44;28.61
32456;BME280;18912;43.270;27.942;2022-07-29T13:35:12;98156.69;;;34.08;28.98
32456;BME280;18912;43.270;27.942;2022-07-29T13:37:39;98157.38;;;33.62;28.91
32456;BME280;18912;43.270;27.942;2022-07-29T13:40:07;98156.19;;;33.63;29.44
32456;BME280;18912;43.270;27.942;2022-07-29T13:42:33;98152.84;;;33.85;29.79
32456;BME280;18912;43.270;27.942;2022-07-29T13:44:59;98154.94;;;33.60;28.76
32456;BME280;18912;43.270;27.942;2022-07-29T13:47:25;98162.06;;;33.58;30.36
32456;BME280;18912;43.270;27.942;2022-07-29T13:49:51;98167.00;;;33.37;29.83
32456;BME280;18912;43.270;27.942;2022-07-29T13:52:19;98165.50;;;33.15;30.06
32456;BME280;18912;43.270;27.942;2022-07-29T13:54:44;98156.72;;;33.41;29.82
32456;BME280;18912;43.270;27.942;2022-07-29T13:57:10;98163.91;;;33.66;30.00
32456;BME280;18912;43.270;27.942;2022-07-29T13:59:36;98161.44;;;33.64;30.93